ADDS METAR Data INFO
IDs: Format: Raw Decoded Include TAF

Data at: 0211 UTC 17 Aug 2018

PAVA 170156Z AUTO 26012KT 10SM FEW060 13/08 A2999 RMK AO2 SLP240 T01330083 $
PAVA 170056Z AUTO 26011KT 10SM CLR 14/07 A2999 RMK AO2 SLP239 T01390072 $
PAVA 162356Z AUTO 26010KT 10SM CLR 14/08 A2999 RMK AO2 SLP241 T01440078 10144 20111 55000 $
PAVA 162256Z AUTO 25009KT 10SM CLR 14/07 A2999 RMK AO2 SLP241 T01440072 $
PAVA 162156Z AUTO 23006KT 10SM FEW025 14/08 A2999 RMK AO2 SLP241 T01390078 $
PAVA 162056Z AUTO 24005KT 10SM CLR 14/07 A2999 RMK AO2 SLP241 T01390072 51001 $
PAVA 161956Z AUTO 24006KT 10SM CLR 13/07 A2999 RMK AO2 SLP241 T01280072 $
PAVA 161856Z AUTO 26005KT 10SM FEW014 12/09 A2999 RMK AO2 SLP241 T01220089 $
PAVA 161756Z AUTO 00000KT 10SM CLR 11/08 A2999 RMK AO2 SLP240 T01110083 10111 20078 51004 $
PAVA 161656Z AUTO 29003KT 10SM CLR 09/08 A2999 RMK AO2 SLP240 T00940078 $
PAVA 161556Z AUTO 30004KT 3SM BR FEW002 08/07 A2999 RMK AO2 SLP238 T00780072 $
PAVA 161553Z AUTO 30004KT 1 1/4SM BR CLR 08/08 A2998 RMK AO2 $
PAVA 161550Z AUTO 30003KT 3/4SM BR CLR 08/07 A2998 RMK AO2 $
PAVA 161546Z AUTO 30003KT 1/2SM FG VV002 08/08 A2998 RMK AO2 $
PAVA 161539Z AUTO 30004KT 3/4SM BR CLR 08/08 A2998 RMK AO2 $
PAVA 161536Z AUTO 31004KT 1 1/2SM BR CLR 08/08 A2998 RMK AO2 $
PAVA 161456Z AUTO 00000KT 10SM CLR 09/08 A2998 RMK AO2 SLP236 T00890078 58002 $
PAVA 161356Z AUTO 35003KT 10SM CLR 08/08 A2998 RMK AO2 SLP238 T00830078 $
PAVA 161256Z AUTO 00000KT 10SM CLR 09/08 A2999 RMK AO2 SLP239 T00890078 $
PAVA 161156Z AUTO 01006KT 10SM CLR 09/08 A2998 RMK AO2 SLP238 T00940078 10122 20094 51002 $
PAVA 161056Z AUTO 03005KT 10SM CLR 09/08 A2998 RMK AO2 SLP238 T00940083 $
PAVA 160956Z AUTO 01008KT 10SM CLR 10/08 A2998 RMK AO2 SLP237 T01000078 $
PAVA 160856Z AUTO 01008KT 10SM SCT060 10/08 A2998 RMK AO2 SLP236 T01000083 51007 $
PAVA 160756Z AUTO 36007KT 10SM FEW060 11/09 A2997 RMK AO2 SLP234 T01110089 401610044 $
PAVA 160656Z AUTO 35008KT 10SM OVC060 12/09 A2997 RMK AO2 SLP233 T01220094 $
PAVA 160556Z AUTO 35005KT 10SM OVC050 12/10 A2996 RMK AO2 SLP229 T01220100 10161 20122 53004 $
PAVA 160456Z AUTO 34011KT 10SM FEW030 SCT045 BKN055 14/09 A2995 RMK AO2 SLP225 T01390094 $
PAVA 160356Z AUTO 35005KT 10SM BKN050 14/07 A2995 RMK AO2 SLP225 T01440072 $
PAVA 160256Z AUTO 07006KT 10SM BKN042 OVC055 16/06 A2994 RMK AO2 SLP225 T01560056 55001 $
PAVA 160156Z AUTO 00000KT 10SM BKN042 BKN049 15/06 A2994 RMK AO2 SLP224 T01500056 $
PAVA 160056Z AUTO 11003KT 9SM BKN043 14/05 A2994 RMK AO2 SLP225 T01440050 $
PAVA 152356Z AUTO 06006KT 10SM OVC036 14/05 A2995 RMK AO2 SLP225 T01390050 10144 20083 50000 $
PAVA 152256Z AUTO 08005KT 10SM BKN034 13/06 A2995 RMK AO2 SLP227 T01330056 $
PAVA 152156Z AUTO 06007KT 10SM BKN032 12/06 A2995 RMK AO2 SLP227 T01170056 $
PAVA 151856Z AUTO 06006KT 10SM CLR 09/07 A2994 RMK AO2 SLP223 T00940067 $
PAVA 151756Z AUTO 07006KT 10SM CLR 08/07 A2993 RMK AO2 SLP220 T00830067 10083 20044 53012 $
PAVA 151656Z AUTO 02007KT 10SM CLR 07/06 A2992 RMK AO2 SLP215 T00670061 $
PAVA 151556Z AUTO 07004KT 10SM CLR 05/04 A2991 RMK AO2 SLP212 T00500044 $
PAVA 151456Z AUTO 07003KT 9SM CLR 05/04 A2990 RMK AO2 SLP208 T00500044 53005 $